Time;durP1;ratioP1;P1;durP2;ratioP2;P2;SDS_P1;SDS_P2;PMS_P1;PMS_P2;Temp;Humidity;BMP_temperature;BMP_pressure;BME280_temperature;BME280_humidity;BME280_pressure;Samples;Min_cycle;Max_cycle;Signal;HPM_P1;HPM_P2
2023/12/30 00:01:12;;;;;;;1.45;0.95;;;;;;;13.11;86.95;100240.56;5010577;28;20069;-85
2023/12/30 00:03:41;;;;;;;1.98;1.08;;;;;;;13.07;84.79;100257.81;5021113;28;20048;-85
2023/12/30 00:06:10;;;;;;;0.80;0.60;;;;;;;12.97;84.09;100250.78;5008143;28;20069;-85
2023/12/30 00:08:44;;;;;;;1.35;0.90;;;;;;;12.88;84.23;100245.47;5013470;28;20093;-85
2023/12/30 00:11:16;;;;;;;1.42;0.93;;;;;;;12.83;85.87;100240.22;5010312;28;20061;-85
2023/12/30 00:13:49;;;;;;;2.83;0.65;;;;;;;12.78;86.93;100247.97;5017691;28;20054;-86
2023/12/30 00:16:18;;;;;;;2.63;0.90;;;;;;;12.73;88.49;100252.22;5012533;28;20185;-84
2023/12/30 00:18:56;;;;;;;1.92;0.80;;;;;;;12.62;91.12;100266.81;5006580;28;20060;-84
2023/12/30 00:21:29;;;;;;;2.45;0.75;;;;;;;12.51;93.76;100266.66;5000451;28;20058;-85
2023/12/30 00:24:02;;;;;;;1.63;0.88;;;;;;;12.41;95.94;100271.66;5004682;28;20129;-84
2023/12/30 00:26:37;;;;;;;1.23;0.90;;;;;;;12.23;100.00;100280.06;5002349;28;20117;-84
2023/12/30 00:29:06;;;;;;;1.83;0.57;;;;;;;12.16;100.00;100271.31;5000592;28;20054;-85
2023/12/30 00:31:35;;;;;;;1.23;0.75;;;;;;;12.14;100.00;100254.88;5003852;28;20073;-85
2023/12/30 00:34:18;;;;;;;2.67;0.80;;;;;;;12.12;100.00;100279.91;4999172;28;20051;-84
2023/12/30 00:36:53;;;;;;;1.45;0.50;;;;;;;12.08;100.00;100298.84;5002801;28;20155;-88
2023/12/30 00:55:29;;;;;;;1.50;0.85;;;;;;;11.85;100.00;100338.19;5844687;23;20050;-87
2023/12/30 00:57:59;;;;;;;1.85;1.13;;;;;;;11.84;100.00;100340.75;4980877;28;20054;-87
2023/12/30 01:00:28;;;;;;;1.42;0.82;;;;;;;11.83;100.00;100337.28;4983939;28;20054;-87
2023/12/30 01:03:00;;;;;;;2.08;0.93;;;;;;;11.79;100.00;100347.59;4978217;28;20082;-88
2023/12/30 01:05:37;;;;;;;1.58;0.63;;;;;;;11.72;100.00;100346.59;4989461;28;20055;-88
2023/12/30 01:08:06;;;;;;;1.85;0.85;;;;;;;11.69;100.00;100331.00;4992712;28;20101;-88
2023/12/30 01:10:37;;;;;;;0.93;0.50;;;;;;;11.69;100.00;100344.81;4992992;28;20516;-88
2023/12/30 01:13:16;;;;;;;1.60;0.75;;;;;;;11.64;100.00;100355.97;5000890;28;20065;-88
2023/12/30 01:15:45;;;;;;;3.63;0.68;;;;;;;11.58;100.00;100350.66;5003980;28;20082;-88
2023/12/30 01:18:14;;;;;;;1.73;0.90;;;;;;;11.57;100.00;100347.19;4993830;28;20066;-86
2023/12/30 02:03:00;;;;;;;1.15;0.73;;;;;;;11.21;100.00;100335.25;5764974;23;20036;-88
2023/12/30 02:05:32;;;;;;;1.70;0.90;;;;;;;11.24;100.00;100355.16;4947682;28;20051;-89
2023/12/30 02:08:09;;;;;;;1.50;0.90;;;;;;;11.20;100.00;100358.53;4946786;28;20055;-89
2023/12/30 02:20:56;;;;;;;1.70;0.90;;;;;;;11.14;100.00;100342.91;5086369;23;20056;-87
2023/12/30 02:23:35;;;;;;;3.25;0.90;;;;;;;11.12;100.00;100324.72;4987563;28;20050;-87
2023/12/30 02:26:07;;;;;;;1.50;0.90;;;;;;;11.08;100.00;100305.66;4990433;28;20080;-87
2023/12/30 02:28:36;;;;;;;0.60;0.60;;;;;;;11.05;100.00;100303.00;4997021;28;20140;-86
2023/12/30 02:31:11;;;;;;;1.55;0.70;;;;;;;11.07;100.00;100293.56;4996849;28;20152;-85
2023/12/30 02:33:42;;;;;;;0.57;0.55;;;;;;;11.08;100.00;100297.03;4987998;28;20050;-86
2023/12/30 02:36:11;;;;;;;1.88;0.68;;;;;;;11.10;100.00;100301.38;4993705;28;20058;-85
2023/12/30 02:38:51;;;;;;;2.35;1.05;;;;;;;11.06;100.00;100293.53;4992509;28;20058;-87
2023/12/30 02:41:20;;;;;;;2.90;1.10;;;;;;;11.04;100.00;100300.38;4991826;28;20062;-87
2023/12/30 02:44:10;;;;;;;;;;;;;;;;;;;;;
2023/12/30 02:46:40;;;;;;;1.95;1.25;;;;;;;10.96;100.00;100308.00;4990624;28;20513;-85
2023/12/30 02:49:09;;;;;;;2.90;1.20;;;;;;;10.94;100.00;100314.00;4989043;28;20460;-86
2023/12/30 02:51:38;;;;;;;1.58;1.00;;;;;;;10.98;100.00;100314.09;4990542;28;20105;-86
2023/12/30 02:54:17;;;;;;;2.83;0.90;;;;;;;10.96;100.00;100297.66;4988131;28;20100;-84
2023/12/30 02:56:46;;;;;;;2.70;0.90;;;;;;;10.99;100.00;100302.88;4990822;28;20054;-85
2023/12/30 02:59:15;;;;;;;1.65;0.70;;;;;;;10.93;100.00;100310.53;4987022;28;20059;-86
2023/12/30 03:01:50;;;;;;;0.57;0.57;;;;;;;11.01;100.00;100310.69;4990508;28;20050;-86
2023/12/30 03:04:20;;;;;;;1.45;0.70;;;;;;;11.01;100.00;100311.56;4989869;28;20081;-86
2023/12/30 03:06:49;;;;;;;3.75;1.30;;;;;;;11.02;100.00;100323.66;4992294;28;20054;-87
2023/12/30 03:09:20;;;;;;;1.25;0.73;;;;;;;11.02;100.00;100322.81;4987976;28;20077;-86
2023/12/30 03:11:56;;;;;;;2.35;1.02;;;;;;;11.01;100.00;100332.25;4988134;28;20050;-86
2023/12/30 03:14:25;;;;;;;1.13;1.02;;;;;;;11.00;100.00;100322.75;4991368;28;20049;-86
2023/12/30 03:16:55;;;;;;;1.95;1.00;;;;;;;11.06;100.00;100338.44;4991066;28;20058;-87
2023/12/30 03:19:27;;;;;;;2.92;1.00;;;;;;;11.04;100.00;100332.34;4992927;28;20063;-87
2023/12/30 03:21:59;;;;;;;5.68;1.40;;;;;;;11.06;100.00;100312.53;4991105;28;20520;-86
2023/12/30 03:24:33;;;;;;;3.80;1.13;;;;;;;11.03;100.00;100302.09;4986871;28;20159;-85
2023/12/30 03:27:03;;;;;;;1.65;1.13;;;;;;;11.07;100.00;100311.69;4987472;28;20051;-86
2023/12/30 03:29:37;;;;;;;0.80;0.73;;;;;;;11.08;100.00;100312.56;4993672;28;20420;-86
2023/12/30 03:32:06;;;;;;;4.43;0.85;;;;;;;11.09;100.00;100304.81;4988430;28;20125;-86
2023/12/30 03:34:35;;;;;;;1.85;0.95;;;;;;;11.07;100.00;100296.16;4989219;28;20608;-86
2023/12/30 03:37:04;;;;;;;1.75;1.00;;;;;;;11.07;100.00;100303.91;4989286;28;20059;-87
2023/12/30 03:39:44;;;;;;;1.05;0.70;;;;;;;11.07;100.00;100303.91;4986831;28;20054;-88
2023/12/30 03:42:14;;;;;;;2.75;1.38;;;;;;;11.06;100.00;100309.94;4991231;28;20054;-86
2023/12/30 03:44:42;;;;;;;4.60;1.08;;;;;;;11.07;100.00;100322.03;4991797;28;20045;-86
2023/12/30 03:47:12;;;;;;;1.63;1.20;;;;;;;11.05;100.00;100317.69;4991129;28;20070;-85
2023/12/30 03:49:41;;;;;;;2.15;1.30;;;;;;;11.02;100.00;100321.09;4989179;28;20056;-86
2023/12/30 03:52:10;;;;;;;2.30;1.20;;;;;;;11.03;100.00;100330.59;4994904;28;20054;-87
2023/12/30 03:54:42;;;;;;;3.67;1.27;;;;;;;11.02;100.00;100318.50;4993447;28;20054;-86
2023/12/30 03:57:11;;;;;;;3.22;1.70;;;;;;;11.02;100.00;100323.66;4994802;28;20058;-87
2023/12/30 03:59:48;;;;;;;1.85;1.30;;;;;;;11.03;100.00;100315.03;4989159;28;20062;-87
2023/12/30 04:02:17;;;;;;;3.45;1.00;;;;;;;11.02;100.00;100318.50;4992479;28;20841;-88
2023/12/30 04:04:46;;;;;;;2.13;1.15;;;;;;;10.93;100.00;100317.44;4990686;28;20118;-87
2023/12/30 04:07:21;;;;;;;3.10;1.35;;;;;;;10.95;100.00;100324.38;4995111;28;20058;-87
2023/12/30 04:09:52;;;;;;;5.10;1.25;;;;;;;10.94;100.00;100322.63;4994774;28;20137;-86
2023/12/30 04:12:21;;;;;;;3.30;1.30;;;;;;;10.95;100.00;100332.16;4993575;28;20050;-86
2023/12/30 04:14:50;;;;;;;3.75;1.65;;;;;;;10.98;100.00;100346.88;4999731;28;20043;-87
2023/12/30 04:17:25;;;;;;;6.95;1.25;;;;;;;10.99;100.00;100346.88;5000085;28;20057;-87
2023/12/30 04:19:54;;;;;;;2.22;1.20;;;;;;;10.98;100.00;100342.56;4991339;28;20090;-86
2023/12/30 04:22:24;;;;;;;1.88;1.10;;;;;;;11.01;100.00;100333.97;4994820;28;20572;-88
2023/12/30 04:24:59;;;;;;;2.53;1.17;;;;;;;11.04;100.00;100328.84;4991526;28;20089;-87
2023/12/30 04:27:31;;;;;;;2.38;1.20;;;;;;;11.05;100.00;100335.81;4992062;28;20312;-87
2023/12/30 04:30:00;;;;;;;2.45;1.13;;;;;;;11.04;100.00;100326.28;4994103;28;20478;-88
2023/12/30 04:32:29;;;;;;;1.45;1.10;;;;;;;11.02;100.00;100317.63;4984231;28;20055;-87
2023/12/30 04:34:59;;;;;;;1.88;1.20;;;;;;;11.07;100.00;100301.31;4991462;28;20103;-88
2023/12/30 04:37:30;;;;;;;1.30;1.05;;;;;;;11.08;100.00;100292.72;4994998;28;20054;-86
2023/12/30 04:40:01;;;;;;;3.25;0.98;;;;;;;11.04;100.00;100285.75;4987529;28;20130;-87
2023/12/30 04:42:30;;;;;;;2.55;1.17;;;;;;;11.11;100.00;100303.16;4989935;28;20411;-88
2023/12/30 04:47:41;;;;;;;1.95;1.00;;;;;;;11.13;100.00;100320.41;5003109;28;20536;-86
2023/12/30 04:50:11;;;;;;;6.32;0.95;;;;;;;11.14;100.00;100324.78;5009460;28;20068;-84
2023/12/30 04:52:46;;;;;;;4.72;1.25;;;;;;;11.15;100.00;100323.91;5011504;28;20057;-85
2023/12/30 04:55:25;;;;;;;2.90;1.25;;;;;;;11.14;100.00;100317.88;5012436;28;20050;-85
2023/12/30 04:57:58;;;;;;;2.28;1.40;;;;;;;11.15;100.00;100322.19;5008901;28;20046;-85
2023/12/30 05:00:34;;;;;;;2.53;1.40;;;;;;;11.13;100.00;100326.47;4992035;28;20066;-85
2023/12/30 05:03:14;;;;;;;4.45;1.25;;;;;;;11.08;100.00;100328.09;4984157;28;20046;-86
2023/12/30 05:05:45;;;;;;;5.00;1.45;;;;;;;11.08;100.00;100339.31;4989966;28;20061;-86
2023/12/30 05:08:14;;;;;;;2.17;1.00;;;;;;;11.09;100.00;100345.38;4994347;28;20051;-86
2023/12/30 05:10:45;;;;;;;4.93;1.60;;;;;;;11.07;100.00;100332.41;4992397;28;20073;-86
2023/12/30 05:13:14;;;;;;;2.42;1.17;;;;;;;11.06;100.00;100319.41;4998579;28;20108;-87
2023/12/30 05:15:43;;;;;;;2.83;1.40;;;;;;;11.02;100.00;100320.22;4984253;28;20046;-87
2023/12/30 05:18:16;;;;;;;3.00;1.10;;;;;;;11.01;100.00;100329.66;4986915;28;20555;-87
2023/12/30 05:20:45;;;;;;;1.63;1.20;;;;;;;10.97;100.00;100320.13;4982585;28;20050;-86
2023/12/30 05:23:14;;;;;;;2.35;1.30;;;;;;;10.98;100.00;100334.81;4993095;28;20085;-86
2023/12/30 05:25:46;;;;;;;2.25;1.60;;;;;;;10.98;100.00;100329.63;4993802;28;20046;-86
2023/12/30 05:28:17;;;;;;;2.20;1.20;;;;;;;10.97;100.00;100320.13;4993419;28;20050;-86
2023/12/30 05:30:46;;;;;;;2.28;1.30;;;;;;;10.99;100.00;100307.19;4993567;28;20137;-86
2023/12/30 05:33:15;;;;;;;1.55;1.00;;;;;;;11.01;100.00;100321.91;4996181;28;20050;-85
2023/12/30 05:35:44;;;;;;;2.10;1.17;;;;;;;11.01;100.00;100321.03;4985455;28;20054;-85
2023/12/30 05:38:20;;;;;;;2.78;1.27;;;;;;;11.02;100.00;100318.50;4997739;28;20062;-85
2023/12/30 05:40:51;;;;;;;2.03;0.90;;;;;;;11.05;100.00;100317.69;4996231;28;20065;-84
2023/12/30 05:43:20;;;;;;;2.53;0.90;;;;;;;11.02;100.00;100321.09;4990356;28;20053;-85
2023/12/30 05:45:49;;;;;;;2.00;0.90;;;;;;;11.04;100.00;100316.81;4992284;28;20051;-86
2023/12/30 05:48:23;;;;;;;1.73;0.93;;;;;;;11.03;100.00;100324.53;4990992;28;20050;-85
2023/12/30 05:50:52;;;;;;;2.80;1.10;;;;;;;11.06;100.00;100328.06;4991866;28;20062;-85
2023/12/30 05:53:20;;;;;;;1.25;0.80;;;;;;;11.05;100.00;100331.50;4992885;28;20488;-85
2023/12/30 05:55:52;;;;;;;2.97;1.10;;;;;;;11.07;100.00;100335.00;4991700;28;20049;-85
2023/12/30 05:58:24;;;;;;;2.03;1.20;;;;;;;11.04;100.00;100324.56;4983882;28;20050;-85
2023/12/30 06:00:53;;;;;;;1.48;0.77;;;;;;;11.08;100.00;100334.13;4992022;28;20523;-85
2023/12/30 06:03:22;;;;;;;2.08;1.30;;;;;;;11.06;100.00;100330.66;4988240;28;20119;-86
2023/12/30 06:05:51;;;;;;;4.30;1.20;;;;;;;11.09;100.00;100342.78;4987164;28;20049;-85
2023/12/30 06:08:26;;;;;;;1.27;0.93;;;;;;;11.09;100.00;100351.44;4992402;28;20138;-86
2023/12/30 06:10:57;;;;;;;1.42;1.10;;;;;;;11.12;100.00;100353.22;4992682;28;20141;-86
2023/12/30 06:13:26;;;;;;;1.90;1.05;;;;;;;11.09;100.00;100341.06;4986411;28;20054;-85
2023/12/30 06:15:56;;;;;;;1.98;1.13;;;;;;;11.15;100.00;100363.63;4991729;28;20057;-86
2023/12/30 06:18:30;;;;;;;3.15;0.95;;;;;;;11.16;100.00;100372.28;4980932;28;20053;-85
2023/12/30 06:21:00;;;;;;;1.90;0.93;;;;;;;11.17;100.00;100368.84;4984762;28;20061;-85
2023/12/30 06:23:30;;;;;;;1.55;0.82;;;;;;;11.17;100.00;100374.03;4983203;28;20073;-85
2023/12/30 06:26:19;;;;;;;2.15;1.08;;;;;;;11.13;100.00;100369.63;4987174;28;20656;-85
2023/12/30 06:28:49;;;;;;;1.52;0.93;;;;;;;11.17;100.00;100368.84;4985817;28;20121;-85
2023/12/30 06:31:36;;;;;;;2.70;1.20;;;;;;;11.17;100.00;100363.66;4984476;28;20132;-85
2023/12/30 06:34:04;;;;;;;1.98;1.20;;;;;;;11.16;100.00;100372.28;4975508;28;20053;-85
2023/12/30 06:36:33;;;;;;;1.25;0.95;;;;;;;11.17;100.00;100374.03;4988640;28;20046;-85
2023/12/30 06:39:11;;;;;;;3.10;1.13;;;;;;;11.14;100.00;100373.97;4988131;28;20042;-85
2023/12/30 06:41:43;;;;;;;2.05;1.10;;;;;;;11.08;100.00;100378.16;4986689;28;20069;-85
2023/12/30 06:44:12;;;;;;;1.60;1.00;;;;;;;11.14;100.00;100384.31;4988499;28;20054;-85
2023/12/30 06:46:43;;;;;;;2.30;0.90;;;;;;;11.13;100.00;100398.09;4981683;28;20056;-85
2023/12/30 06:49:12;;;;;;;2.92;1.30;;;;;;;11.07;100.00;100389.34;4978057;28;20047;-86
2023/12/30 06:51:43;;;;;;;1.95;0.98;;;;;;;11.10;100.00;100404.09;4991878;28;20050;-86
2023/12/30 06:54:12;;;;;;;1.45;1.10;;;;;;;11.07;100.00;100404.91;4989034;28;20078;-85
2023/12/30 06:56:53;;;;;;;2.13;1.05;;;;;;;11.08;100.00;100404.03;4989590;28;20077;-86
2023/12/30 06:59:22;;;;;;;1.90;1.23;;;;;;;11.08;100.00;100416.13;4988720;28;20126;-86
2023/12/30 07:01:51;;;;;;;2.63;1.10;;;;;;;10.99;100.00;100411.59;4990995;28;20051;-86
2023/12/30 07:04:21;;;;;;;1.25;0.88;;;;;;;10.97;100.00;100410.72;4990009;28;20113;-86
2023/12/30 07:06:52;;;;;;;3.08;0.88;;;;;;;10.98;100.00;100409.00;4989512;28;20077;-86
2023/12/30 07:09:22;;;;;;;2.60;1.13;;;;;;;10.99;100.00;100416.78;4994983;28;20051;-85
2023/12/30 07:11:54;;;;;;;3.58;1.42;;;;;;;10.99;100.00;100421.09;4987372;28;20133;-86
2023/12/30 07:14:23;;;;;;;1.30;1.20;;;;;;;10.99;100.00;100416.78;4989147;28;20197;-87
2023/12/30 07:16:55;;;;;;;2.00;1.45;;;;;;;10.98;100.00;100409.88;4986972;28;20050;-86
2023/12/30 07:19:23;;;;;;;4.15;1.58;;;;;;;10.93;100.00;100400.28;4984467;28;20054;-84
2023/12/30 07:21:52;;;;;;;7.13;1.40;;;;;;;10.93;100.00;100405.44;4988698;28;20082;-85
2023/12/30 07:24:21;;;;;;;3.22;1.23;;;;;;;10.94;100.00;100412.34;4997715;28;20046;-85
2023/12/30 07:27:00;;;;;;;2.50;1.20;;;;;;;10.92;100.00;100417.50;4995203;28;20058;-84
2023/12/30 07:29:29;;;;;;;1.55;1.23;;;;;;;10.89;100.00;100422.59;4989182;28;20054;-84
2023/12/30 07:31:58;;;;;;;1.10;1.00;;;;;;;10.90;100.00;100427.84;4995057;28;20086;-85
2023/12/30 07:34:27;;;;;;;1.25;0.73;;;;;;;10.92;100.00;100425.25;4995190;28;20386;-85
2023/12/30 07:37:04;;;;;;;2.47;1.20;;;;;;;10.87;100.00;100427.75;4995812;28;20130;-85
2023/12/30 07:39:34;;;;;;;1.80;1.23;;;;;;;10.84;100.00;100443.22;4993844;28;20062;-85
2023/12/30 07:42:05;;;;;;;2.00;1.33;;;;;;;10.81;100.00;100437.06;4995606;28;20042;-84
2023/12/30 07:44:42;;;;;;;1.58;1.15;;;;;;;10.73;100.00;100438.63;4994170;28;20058;-85
2023/12/30 07:47:11;;;;;;;1.17;0.98;;;;;;;10.68;100.00;100444.56;4994727;28;20062;-84
2023/12/30 07:49:40;;;;;;;1.52;1.08;;;;;;;10.73;100.00;100454.16;4993717;28;20078;-84
2023/12/30 07:52:08;;;;;;;1.83;1.05;;;;;;;10.74;100.00;100454.16;4994702;28;20050;-84
2023/12/30 07:54:41;;;;;;;1.40;1.10;;;;;;;10.78;100.00;100453.41;4994317;28;20061;-84
2023/12/30 07:57:11;;;;;;;2.28;1.20;;;;;;;10.76;100.00;100443.84;4993445;28;20105;-84
2023/12/30 07:59:40;;;;;;;2.08;1.30;;;;;;;10.77;100.00;100446.50;4994377;28;20058;-85
2023/12/30 08:02:09;;;;;;;2.80;1.58;;;;;;;10.79;100.00;100454.28;4995305;28;20050;-83
2023/12/30 08:04:46;;;;;;;3.17;1.52;;;;;;;10.79;100.00;100443.91;4994053;28;20105;-83
2023/12/30 08:07:16;;;;;;;2.45;1.50;;;;;;;10.78;100.00;100448.22;4990830;28;20562;-84
2023/12/30 08:09:45;;;;;;;4.93;1.60;;;;;;;10.76;100.00;100449.91;4993426;28;20054;-85
2023/12/30 08:12:22;;;;;;;2.80;1.75;;;;;;;10.75;100.00;100442.13;4993029;28;20141;-85
2023/12/30 08:14:52;;;;;;;2.65;1.48;;;;;;;10.74;100.00;100440.34;4986538;28;20130;-84
2023/12/30 08:17:21;;;;;;;2.10;1.27;;;;;;;10.74;100.00;100440.34;4993111;28;20050;-84
2023/12/30 08:19:49;;;;;;;6.05;2.25;;;;;;;10.68;100.00;100441.97;4982597;28;20050;-85
2023/12/30 08:22:18;;;;;;;2.60;1.70;;;;;;;10.64;100.00;100440.13;4984974;28;20082;-85
2023/12/30 08:24:51;;;;;;;2.58;1.60;;;;;;;10.64;100.00;100434.09;4988726;28;20062;-85
2023/12/30 08:27:22;;;;;;;3.10;1.58;;;;;;;10.65;100.00;100439.31;4983766;28;20144;-84
2023/12/30 08:29:51;;;;;;;2.28;1.65;;;;;;;10.65;100.00;100431.56;4990120;28;20054;-84
2023/12/30 08:32:20;;;;;;;1.92;1.48;;;;;;;10.61;100.00;100429.72;4988787;28;20054;-84
2023/12/30 08:34:51;;;;;;;3.63;1.85;;;;;;;10.58;100.00;100440.00;4982833;28;20066;-83
2023/12/30 08:37:20;;;;;;;1.67;1.33;;;;;;;10.57;100.00;100439.97;4986614;28;20047;-84
2023/12/30 08:39:49;;;;;;;2.78;1.20;;;;;;;10.56;100.00;100451.13;4986755;28;20145;-84
2023/12/30 08:42:17;;;;;;;6.05;1.15;;;;;;;10.54;100.00;100456.28;4990486;28;20054;-84
2023/12/30 08:44:54;;;;;;;2.67;1.35;;;;;;;10.54;100.00;100435.59;4988576;28;20132;-84
2023/12/30 08:47:23;;;;;;;1.52;0.93;;;;;;;10.52;100.00;100450.19;4987653;28;20046;-84
2023/12/30 08:49:52;;;;;;;1.90;1.00;;;;;;;10.47;100.00;100436.28;4990813;28;20088;-84
2023/12/30 08:52:21;;;;;;;2.80;1.13;;;;;;;10.53;100.00;100446.75;4989544;28;20085;-83
2023/12/30 08:54:57;;;;;;;2.00;0.80;;;;;;;10.48;100.00;100443.19;4991985;28;20058;-83
2023/12/30 08:57:26;;;;;;;3.67;1.88;;;;;;;10.51;100.00;100443.25;4991225;28;20049;-84
2023/12/30 08:59:57;;;;;;;2.80;1.67;;;;;;;10.49;100.00;100439.78;4984754;28;20105;-84
2023/12/30 09:02:30;;;;;;;3.00;1.77;;;;;;;10.50;100.00;100433.75;4990499;28;20444;-83
2023/12/30 09:04:59;;;;;;;2.47;1.33;;;;;;;10.45;100.00;100427.59;4981521;28;20488;-83
2023/12/30 09:07:27;;;;;;;1.75;1.33;;;;;;;10.41;100.00;100429.22;4994530;28;20050;-83
2023/12/30 09:09:57;;;;;;;2.13;1.40;;;;;;;10.37;100.00;100434.28;4996262;28;20046;-83
2023/12/30 09:12:27;;;;;;;7.18;1.58;;;;;;;10.30;100.00;100447.91;4993952;28;20061;-83
2023/12/30 09:15:05;;;;;;;2.10;1.50;;;;;;;10.29;100.00;100451.34;4991231;28;20571;-83
2023/12/30 09:17:33;;;;;;;1.45;1.10;;;;;;;10.27;100.00;100465.06;4989766;28;20046;-84
2023/12/30 09:20:03;;;;;;;2.58;1.60;;;;;;;10.24;100.00;100457.22;4981622;28;20146;-84
2023/12/30 09:22:37;;;;;;;2.90;1.80;;;;;;;10.23;100.00;100452.88;4983425;28;20047;-83
2023/12/30 09:25:07;;;;;;;3.47;1.23;;;;;;;10.23;100.00;100459.75;4982256;28;20046;-84
2023/12/30 09:27:37;;;;;;;2.13;1.48;;;;;;;10.18;100.00;100459.66;4987047;28;20504;-84
2023/12/30 09:30:08;;;;;;;4.00;1.65;;;;;;;10.18;100.00;100459.66;4982718;28;20113;-83
2023/12/30 09:32:37;;;;;;;2.90;1.57;;;;;;;10.15;100.00;100459.56;4979780;28;20460;-83
2023/12/30 09:35:07;;;;;;;2.25;1.33;;;;;;;10.12;100.00;100464.66;4982194;28;20053;-84
2023/12/30 09:37:36;;;;;;;2.17;1.30;;;;;;;10.15;100.00;100469.06;4987315;28;20042;-83
2023/12/30 09:40:05;;;;;;;3.20;1.30;;;;;;;10.20;100.00;100468.31;4985229;28;20105;-84
2023/12/30 09:42:34;;;;;;;3.08;1.65;;;;;;;10.21;100.00;100477.81;4993969;28;20073;-83
2023/12/30 09:45:06;;;;;;;3.53;1.50;;;;;;;10.26;100.00;100467.59;4988517;28;20047;-83
2023/12/30 09:47:38;;;;;;;4.03;1.60;;;;;;;10.29;100.00;100472.91;4990844;28;20102;-84
2023/12/30 09:50:08;;;;;;;2.40;1.60;;;;;;;10.26;100.00;100467.59;4995224;28;20048;-83
2023/12/30 09:52:40;;;;;;;1.27;1.15;;;;;;;10.25;100.00;100466.72;4990977;28;20081;-83
2023/12/30 09:55:12;;;;;;;4.30;2.08;;;;;;;10.25;100.00;100465.84;4994927;28;20083;-83
2023/12/30 09:57:41;;;;;;;3.20;1.60;;;;;;;10.22;100.00;100469.25;4990349;28;20528;-83
2023/12/30 10:00:12;;;;;;;6.80;1.77;;;;;;;10.21;100.00;100470.06;4983751;28;20065;-83
2023/12/30 10:02:50;;;;;;;3.53;1.88;;;;;;;10.18;100.00;100472.56;4977705;28;20056;-83
2023/12/30 10:05:19;;;;;;;5.35;1.80;;;;;;;10.16;100.00;100470.78;4981643;28;20058;-83
2023/12/30 10:07:48;;;;;;;3.20;1.88;;;;;;;10.12;100.00;100480.16;4986645;28;20081;-83
2023/12/30 10:10:32;;;;;;;3.10;1.67;;;;;;;10.08;100.00;100478.34;4992451;28;20061;-83
2023/12/30 10:13:01;;;;;;;2.45;1.48;;;;;;;10.01;100.00;100477.31;4989697;28;20505;-83
2023/12/30 10:15:31;;;;;;;4.75;1.98;;;;;;;10.02;100.00;100496.25;4986353;28;20057;-82
2023/12/30 10:18:11;;;;;;;;;;;;;;;;;;;;;
2023/12/30 10:20:41;;;;;;;3.55;2.45;;;;;;;10.09;100.00;100516.28;4990327;28;20054;-83
2023/12/30 10:23:10;;;;;;;5.15;2.00;;;;;;;10.06;100.00;100511.03;4985262;28;20062;-84
2023/12/30 10:25:39;;;;;;;3.53;2.00;;;;;;;10.06;100.00;100516.19;4990962;28;20133;-83
2023/12/30 10:28:09;;;;;;;3.53;1.80;;;;;;;10.04;100.00;100523.91;4993065;28;20046;-83
2023/12/30 10:30:38;;;;;;;4.10;1.80;;;;;;;10.05;100.00;100527.34;4989935;28;20042;-83
2023/12/30 10:33:13;;;;;;;2.70;1.80;;;;;;;10.06;100.00;100540.34;4990302;28;20089;-83
2023/12/30 10:35:54;;;;;;;;;;;;;;;;;;;;;
2023/12/30 10:38:24;;;;;;;1.90;1.50;;;;;;;10.03;100.00;100523.84;4991735;28;20050;-84
2023/12/30 10:40:53;;;;;;;3.30;1.40;;;;;;;10.05;100.00;100540.28;4992731;28;20510;-83
2023/12/30 10:43:23;;;;;;;3.70;1.98;;;;;;;10.03;100.00;100544.53;4985043;28;20058;-83
2023/12/30 10:45:59;;;;;;;3.28;1.60;;;;;;;10.05;100.00;100540.28;4985869;28;20504;-83
2023/12/30 10:48:33;;;;;;;2.13;1.73;;;;;;;10.05;100.00;100545.47;4996924;28;20097;-83
2023/12/30 10:51:03;;;;;;;1.38;1.02;;;;;;;10.06;100.00;100553.25;4989087;28;20062;-83
2023/12/30 10:53:39;;;;;;;2.88;1.50;;;;;;;10.06;100.00;100542.06;4993094;28;20939;-83
2023/12/30 10:56:11;;;;;;;3.30;2.05;;;;;;;10.04;100.00;100516.16;4989050;28;20077;-84
2023/12/30 10:58:42;;;;;;;3.27;1.27;;;;;;;10.05;100.00;100511.84;4998234;28;20081;-83
2023/12/30 11:01:21;;;;;;;3.83;1.58;;;;;;;10.07;100.00;100518.81;4997668;28;20137;-83
2023/12/30 11:03:52;;;;;;;2.13;1.52;;;;;;;10.09;100.00;100516.28;4985623;28;20184;-84
2023/12/30 11:06:32;;;;;;;2.28;1.63;;;;;;;10.11;100.00;100518.91;4999138;28;20056;-83
2023/12/30 11:09:01;;;;;;;2.22;1.33;;;;;;;10.08;100.00;100522.28;4987905;28;20057;-83
2023/12/30 11:11:31;;;;;;;3.53;1.80;;;;;;;10.05;100.00;100529.94;4990082;28;20046;-83
2023/12/30 11:14:00;;;;;;;3.75;1.90;;;;;;;10.09;100.00;100531.78;4986230;28;20505;-83
2023/12/30 11:16:37;;;;;;;3.22;1.75;;;;;;;10.07;100.00;100531.72;4988721;28;20057;-84
2023/12/30 11:19:09;;;;;;;2.67;1.52;;;;;;;10.03;100.00;100539.34;4989247;28;20053;-83
2023/12/30 11:21:40;;;;;;;3.70;1.45;;;;;;;9.99;100.00;100528.06;4993503;28;20081;-83
2023/12/30 11:24:17;;;;;;;4.88;1.88;;;;;;;9.97;100.00;100508.19;4979797;28;20055;-83
2023/12/30 11:26:47;;;;;;;2.00;1.30;;;;;;;9.97;100.00;100501.31;4977663;28;20051;-84
2023/12/30 11:29:19;;;;;;;2.38;1.27;;;;;;;9.97;100.00;100506.47;4991270;28;20054;-83
2023/12/30 11:31:59;;;;;;;;;;;;;;;;;;;;;
2023/12/30 11:34:31;;;;;;;0.70;0.70;;;;;;;10.04;100.00;100512.69;4990264;28;20058;-84
2023/12/30 11:37:01;;;;;;;0.93;0.65;;;;;;;10.03;100.00;100521.25;4995608;28;20050;-83
2023/12/30 11:39:38;;;;;;;2.53;0.70;;;;;;;10.06;100.00;100521.38;4993893;28;20065;-84
2023/12/30 11:42:08;;;;;;;2.60;0.80;;;;;;;10.04;100.00;100520.44;4989839;28;20054;-84
2023/12/30 11:44:38;;;;;;;1.05;0.65;;;;;;;10.05;100.00;100520.47;4991882;28;20078;-83
2023/12/30 11:47:07;;;;;;;1.80;1.10;;;;;;;10.06;100.00;100531.72;4987888;28;20046;-83
2023/12/30 11:49:46;;;;;;;2.05;0.90;;;;;;;10.09;100.00;100525.75;4994968;28;20062;-83
2023/12/30 11:52:15;;;;;;;0.68;0.43;;;;;;;10.12;100.00;100531.00;4982346;28;20129;-83
2023/12/30 11:54:46;;;;;;;1.00;0.50;;;;;;;10.13;100.00;100538.81;4982828;28;20054;-82
2023/12/30 11:57:17;;;;;;;0.85;0.80;;;;;;;10.11;100.00;100539.59;4993004;28;20072;-83
2023/12/30 11:59:46;;;;;;;1.23;0.82;;;;;;;10.06;100.00;100547.22;4989330;28;20069;-84
2023/12/30 12:02:15;;;;;;;1.75;1.10;;;;;;;9.97;100.00;100550.41;4989671;28;20062;-85
2023/12/30 12:04:46;;;;;;;2.47;1.55;;;;;;;9.92;100.00;100558.84;4989797;28;20054;-84
2023/12/30 12:07:25;;;;;;;;;;;;;;;;;;;;;
2023/12/30 12:09:55;;;;;;;2.47;1.60;;;;;;;9.76;100.00;100573.06;4993831;28;20046;-84
2023/12/30 12:12:24;;;;;;;2.13;1.48;;;;;;;9.68;100.00;100567.66;4986851;28;20518;-83
2023/12/30 12:14:54;;;;;;;3.40;1.55;;;;;;;9.68;100.00;100570.22;4983138;28;20047;-83
2023/12/30 12:17:25;;;;;;;3.03;1.10;;;;;;;9.69;100.00;100560.75;4987671;28;20058;-84
2023/12/30 12:19:58;;;;;;;2.47;1.33;;;;;;;9.70;100.00;100571.16;4985218;28;20046;-83
2023/12/30 12:22:28;;;;;;;2.17;1.30;;;;;;;9.74;100.00;100562.66;4983193;28;20062;-83
2023/12/30 12:25:05;;;;;;;9.07;2.38;;;;;;;9.75;100.00;100567.00;4982664;28;20060;-84
2023/12/30 12:27:34;;;;;;;4.90;1.40;;;;;;;9.80;100.00;100570.63;4988083;28;20051;-84
2023/12/30 12:30:04;;;;;;;2.20;1.40;;;;;;;9.82;100.00;100565.47;4984498;28;20055;-84
2023/12/30 12:32:35;;;;;;;2.60;1.40;;;;;;;9.85;100.00;100568.16;4989099;28;21059;-84
2023/12/30 12:35:09;;;;;;;2.42;1.42;;;;;;;9.86;100.00;100581.09;4986105;28;20054;-84
2023/12/30 12:37:38;;;;;;;2.00;1.42;;;;;;;9.89;100.00;100574.28;4987423;28;20125;-85
2023/12/30 12:40:12;;;;;;;2.22;1.20;;;;;;;9.89;100.00;100575.16;4984432;28;20063;-84
2023/12/30 12:42:48;;;;;;;2.75;1.42;;;;;;;9.88;100.00;100567.38;4988687;28;20046;-85
2023/12/30 12:45:18;;;;;;;3.28;1.58;;;;;;;9.92;100.00;100572.69;4986818;28;20055;-85
2023/12/30 12:47:47;;;;;;;2.42;1.48;;;;;;;9.91;100.00;100582.97;4986780;28;20075;-84
2023/12/30 12:50:19;;;;;;;3.40;1.45;;;;;;;9.88;100.00;100569.97;4988334;28;20112;-83
2023/12/30 12:52:50;;;;;;;1.77;1.00;;;;;;;9.85;100.00;100578.50;4988780;28;20069;-84
2023/12/30 12:55:20;;;;;;;4.63;1.73;;;;;;;9.89;100.00;100585.50;4983914;28;20042;-84